Time;durP1;ratioP1;P1;durP2;ratioP2;P2;SDS_P1;SDS_P2;PMS_P1;PMS_P2;Temp;Humidity;BMP_temperature;BMP_pressure;BME280_temperature;BME280_humidity;BME280_pressure;Samples;Min_cycle;Max_cycle;Signal;HPM_P1;HPM_P2
2024/03/16 00:02:41;;;;;;;4.35;3.00;;;14.40;97.90;;;;;;5047188;28;20057;-69
2024/03/16 00:05:27;;;;;;;4.43;2.90;;;14.30;97.90;;;;;;5084891;27;20059;-69
2024/03/16 00:08:13;;;;;;;3.85;2.70;;;14.30;98.00;;;;;;5030951;28;20050;-69
2024/03/16 00:10:59;;;;;;;4.45;3.28;;;14.30;98.00;;;;;;5037155;27;20070;-69
2024/03/16 00:13:45;;;;;;;5.47;3.00;;;14.20;98.00;;;;;;5021480;28;20045;-70
2024/03/16 00:16:32;;;;;;;3.75;2.88;;;14.20;98.10;;;;;;5079324;28;20048;-70
2024/03/16 00:19:18;;;;;;;4.63;2.55;;;14.20;98.10;;;;;;5020070;28;20045;-69
2024/03/16 00:22:04;;;;;;;4.22;2.65;;;14.10;98.10;;;;;;5046257;27;20094;-71
2024/03/16 00:24:50;;;;;;;3.63;2.60;;;14.10;98.20;;;;;;5079693;28;20070;-70
2024/03/16 00:27:36;;;;;;;3.92;2.60;;;14.10;98.20;;;;;;5030056;28;20046;-71
2024/03/16 00:30:23;;;;;;;5.45;2.83;;;14.10;98.30;;;;;;5052465;27;20042;-71
2024/03/16 00:33:09;;;;;;;4.15;2.90;;;14.10;98.30;;;;;;5089315;28;20057;-71
2024/03/16 00:35:54;;;;;;;3.90;2.97;;;14.20;98.60;;;;;;5041060;28;20105;-70
2024/03/16 00:38:42;;;;;;;4.68;2.80;;;14.20;98.40;;;;;;5027377;28;20545;-72
2024/03/16 00:41:27;;;;;;;6.60;2.67;;;14.10;98.40;;;;;;5031268;28;20447;-71
2024/03/16 00:44:13;;;;;;;3.85;2.42;;;14.20;98.40;;;;;;5055846;27;20542;-72
2024/03/16 00:46:59;;;;;;;4.60;2.75;;;14.10;98.40;;;;;;5026018;28;20450;-72
2024/03/16 00:49:45;;;;;;;5.70;2.80;;;14.10;98.50;;;;;;5028802;28;20041;-72
2024/03/16 00:52:31;;;;;;;3.97;2.83;;;14.10;98.50;;;;;;5026439;28;20126;-72
2024/03/16 00:55:17;;;;;;;3.35;2.55;;;14.10;98.60;;;;;;5024714;28;20041;-72
2024/03/16 00:58:03;;;;;;;4.18;2.75;;;14.10;98.50;;;;;;5020454;28;20095;-72
2024/03/16 01:00:51;;;;;;;4.40;2.83;;;14.00;98.50;;;;;;5028422;28;20133;-70
2024/03/16 01:03:37;;;;;;;3.78;2.72;;;14.10;98.60;;;;;;5013444;28;20127;-70
2024/03/16 01:06:22;;;;;;;3.50;2.72;;;14.10;98.50;;;;;;5020231;28;20504;-70
2024/03/16 01:09:08;;;;;;;2.83;2.20;;;14.10;98.50;;;;;;5020049;28;20033;-71
2024/03/16 01:11:55;;;;;;;3.42;2.25;;;14.10;98.50;;;;;;5027735;28;20090;-71
2024/03/16 01:14:41;;;;;;;3.47;2.47;;;14.10;98.50;;;;;;5022792;28;20136;-71
2024/03/16 01:17:27;;;;;;;3.65;2.88;;;14.10;98.60;;;;;;5028224;28;20417;-71
2024/03/16 01:20:14;;;;;;;4.03;2.83;;;14.10;98.60;;;;;;5017595;28;20038;-72
2024/03/16 01:23:00;;;;;;;5.13;2.65;;;14.10;98.60;;;;;;5083511;28;20052;-71
2024/03/16 01:25:46;;;;;;;4.13;2.67;;;14.10;98.50;;;;;;5023263;28;20113;-70
2024/03/16 01:28:33;;;;;;;3.67;2.58;;;14.10;98.50;;;;;;5024308;28;20054;-70
2024/03/16 01:31:19;;;;;;;3.42;2.67;;;14.00;98.50;;;;;;5016419;28;20045;-70
2024/03/16 01:34:05;;;;;;;3.53;2.53;;;14.00;98.60;;;;;;5025363;28;20048;-70
2024/03/16 01:36:51;;;;;;;4.32;2.80;;;14.00;98.60;;;;;;5017728;28;20397;-68
2024/03/16 01:39:36;;;;;;;5.40;2.20;;;14.00;98.70;;;;;;5028503;28;20567;-71
2024/03/16 01:42:22;;;;;;;3.58;2.65;;;14.00;98.70;;;;;;5024211;28;20049;-69
2024/03/16 01:45:14;;;;;;;2.92;2.38;;;14.00;98.70;;;;;;5028894;28;20090;-71
2024/03/16 01:48:03;;;;;;;3.80;2.03;;;14.00;98.70;;;;;;5019049;28;20113;-71
2024/03/16 01:50:51;;;;;;;3.03;2.10;;;14.00;98.70;;;;;;5030343;28;20045;-71
2024/03/16 01:53:38;;;;;;;4.22;2.40;;;14.00;98.70;;;;;;5024474;28;20133;-70
2024/03/16 01:56:24;;;;;;;3.65;2.40;;;14.10;98.70;;;;;;5084844;28;20042;-69
2024/03/16 01:59:12;;;;;;;2.97;1.90;;;14.00;98.60;;;;;;5060073;28;20043;-71
2024/03/16 02:02:02;;;;;;;3.50;2.25;;;14.00;98.60;;;;;;5021398;28;20061;-71
2024/03/16 02:04:47;;;;;;;3.30;2.10;;;14.10;98.70;;;;;;5017533;28;20124;-71
2024/03/16 02:07:37;;;;;;;5.10;2.33;;;14.10;98.60;;;;;;5016720;28;20037;-71
2024/03/16 02:10:23;;;;;;;2.95;1.98;;;14.10;98.60;;;;;;5025092;28;20049;-71
2024/03/16 02:13:09;;;;;;;3.50;2.45;;;14.10;98.60;;;;;;5023652;28;20484;-72
2024/03/16 02:15:55;;;;;;;3.88;2.45;;;14.00;98.60;;;;;;5029215;28;20053;-71
2024/03/16 02:18:41;;;;;;;3.33;2.10;;;14.10;98.70;;;;;;5023480;28;20046;-70
2024/03/16 02:21:27;;;;;;;3.58;2.33;;;14.10;98.70;;;;;;5031190;28;20042;-71
2024/03/16 02:24:13;;;;;;;4.15;2.70;;;14.10;98.60;;;;;;5021886;28;20038;-70
2024/03/16 02:26:59;;;;;;;3.25;2.42;;;14.10;98.70;;;;;;5036193;28;20110;-70
2024/03/16 02:29:45;;;;;;;3.65;2.40;;;14.10;98.70;;;;;;5015258;28;20866;-70
2024/03/16 02:32:31;;;;;;;3.05;2.45;;;14.10;98.70;;;;;;5022901;28;20042;-71
2024/03/16 02:35:17;;;;;;;3.25;2.30;;;14.10;98.70;;;;;;5026423;28;20120;-70
2024/03/16 02:38:03;;;;;;;3.10;2.00;;;14.10;98.70;;;;;;5025556;28;20183;-70
2024/03/16 02:40:49;;;;;;;3.53;2.30;;;14.10;98.70;;;;;;5055664;28;20479;-71
2024/03/16 02:43:35;;;;;;;4.85;2.47;;;14.10;98.70;;;;;;5021385;28;20081;-67
2024/03/16 02:46:21;;;;;;;2.83;1.85;;;14.10;98.70;;;;;;5017876;28;20038;-66
2024/03/16 02:49:07;;;;;;;3.08;2.13;;;14.10;98.70;;;;;;5031044;28;20057;-66
2024/03/16 02:51:53;;;;;;;3.05;2.10;;;14.10;98.70;;;;;;5023685;28;20129;-66
2024/03/16 02:54:39;;;;;;;4.43;2.05;;;14.10;98.70;;;;;;5016022;28;20111;-66
2024/03/16 02:57:25;;;;;;;3.67;1.90;;;14.20;98.70;;;;;;5024416;28;20095;-66
2024/03/16 03:00:11;;;;;;;3.40;2.22;;;14.20;98.70;;;;;;5024127;28;20560;-67
2024/03/16 03:02:57;;;;;;;3.42;2.05;;;14.20;98.60;;;;;;5022185;28;20053;-67
2024/03/16 03:05:43;;;;;;;6.38;2.00;;;14.20;98.60;;;;;;5019930;28;20042;-67
2024/03/16 03:08:32;;;;;;;5.68;2.00;;;14.20;98.60;;;;;;5026509;28;20128;-67
2024/03/16 03:11:19;;;;;;;2.75;2.05;;;14.20;98.60;;;;;;5022258;28;20046;-67
2024/03/16 03:14:08;;;;;;;3.38;2.10;;;14.20;98.60;;;;;;5036200;28;20073;-67
2024/03/16 03:16:54;;;;;;;3.47;2.20;;;14.20;98.60;;;;;;5027299;28;20053;-67
2024/03/16 03:19:40;;;;;;;3.83;2.67;;;14.20;98.60;;;;;;5016320;28;20049;-67
2024/03/16 03:22:26;;;;;;;3.55;1.92;;;14.20;98.60;;;;;;5026324;28;20144;-67
2024/03/16 03:25:12;;;;;;;3.63;2.45;;;14.20;98.60;;;;;;5030639;28;20049;-67
2024/03/16 03:27:58;;;;;;;3.38;2.10;;;14.20;98.70;;;;;;5029158;28;20041;-67
2024/03/16 03:30:44;;;;;;;2.72;1.92;;;14.20;98.70;;;;;;5020014;28;20041;-67
2024/03/16 03:33:31;;;;;;;3.53;2.10;;;14.10;98.70;;;;;;5028367;28;20056;-66
2024/03/16 03:36:16;;;;;;;4.07;2.05;;;14.20;98.70;;;;;;5020526;28;20060;-66
2024/03/16 03:39:03;;;;;;;3.10;2.05;;;14.10;98.70;;;;;;5020765;28;20382;-67
2024/03/16 03:41:49;;;;;;;2.80;2.15;;;14.10;98.70;;;;;;5030062;28;20050;-67
2024/03/16 03:44:49;;;;;;;2.78;1.67;;;14.10;98.70;;;;;;5054200;27;20119;-67
2024/03/16 03:47:49;;;;;;;2.72;1.88;;;14.10;98.70;;;;;;5021364;27;22272;-68
2024/03/16 03:50:38;;;;;;;2.80;2.05;;;14.20;98.70;;;;;;5035117;27;20052;-68
2024/03/16 03:53:28;;;;;;;2.20;1.63;;;14.10;98.70;;;;;;5020406;28;20045;-68
2024/03/16 03:56:14;;;;;;;3.65;1.75;;;14.20;98.70;;;;;;5025736;28;20041;-68
2024/03/16 03:59:00;;;;;;;4.15;1.70;;;14.10;98.70;;;;;;5025876;28;20410;-68
2024/03/16 04:01:47;;;;;;;2.88;2.22;;;14.10;98.70;;;;;;5055996;27;20083;-67
2024/03/16 04:04:33;;;;;;;2.95;1.90;;;14.10;98.70;;;;;;5030422;28;20037;-67
2024/03/16 04:07:18;;;;;;;2.95;1.85;;;14.10;99.00;;;;;;5030415;28;20045;-66
2024/03/16 04:10:06;;;;;;;3.33;2.08;;;14.10;98.80;;;;;;5023330;28;20545;-66
2024/03/16 04:12:52;;;;;;;3.55;2.03;;;14.10;98.80;;;;;;5052042;27;20027;-66
2024/03/16 04:15:37;;;;;;;2.72;2.05;;;14.10;98.80;;;;;;5021383;28;20067;-67
2024/03/16 04:18:23;;;;;;;3.95;2.15;;;14.10;98.80;;;;;;5029993;28;20110;-66
2024/03/16 04:21:09;;;;;;;3.03;1.98;;;14.10;98.90;;;;;;5027452;28;20508;-66
2024/03/16 04:23:55;;;;;;;3.60;2.47;;;14.10;98.90;;;;;;5029385;28;20607;-67
2024/03/16 04:26:41;;;;;;;4.80;2.40;;;14.00;98.90;;;;;;5022570;28;20038;-67
2024/03/16 04:29:27;;;;;;;3.40;2.10;;;14.00;99.00;;;;;;5018232;28;20045;-65
2024/03/16 04:32:14;;;;;;;4.10;2.40;;;14.10;99.00;;;;;;5023121;28;20041;-66
2024/03/16 04:35:00;;;;;;;5.07;2.38;;;14.10;99.00;;;;;;5025694;28;20463;-65
2024/03/16 04:37:46;;;;;;;2.88;2.00;;;14.00;99.00;;;;;;5029755;27;20094;-66
2024/03/16 04:40:32;;;;;;;4.97;2.03;;;14.00;99.00;;;;;;5027507;28;20544;-66
2024/03/16 04:43:18;;;;;;;3.90;2.17;;;14.10;99.00;;;;;;5022082;28;20045;-66
2024/03/16 04:46:04;;;;;;;3.25;2.10;;;14.00;99.00;;;;;;5021458;28;20065;-65
2024/03/16 04:48:50;;;;;;;3.20;2.00;;;13.90;98.90;;;;;;5029851;28;20057;-66
2024/03/16 04:51:36;;;;;;;3.70;1.98;;;13.90;99.00;;;;;;5026591;28;20174;-65
2024/03/16 04:54:23;;;;;;;5.97;2.30;;;13.90;99.10;;;;;;5057582;27;20035;-66
2024/03/16 04:57:09;;;;;;;3.00;1.83;;;13.90;99.00;;;;;;5028564;28;20041;-66
2024/03/16 04:59:55;;;;;;;2.55;2.00;;;13.80;99.00;;;;;;5028078;28;20102;-66
2024/03/16 05:02:41;;;;;;;3.88;1.83;;;13.80;99.00;;;;;;5015055;27;20113;-65
2024/03/16 05:05:27;;;;;;;3.72;2.05;;;13.70;99.00;;;;;;5068079;27;20041;-66
2024/03/16 05:08:13;;;;;;;2.40;1.65;;;13.70;99.00;;;;;;5080137;28;20037;-66
2024/03/16 05:10:59;;;;;;;3.60;2.00;;;13.70;99.00;;;;;;5027591;28;20069;-66
2024/03/16 05:13:45;;;;;;;3.92;1.95;;;13.60;99.10;;;;;;5021139;28;20087;-66
2024/03/16 05:16:33;;;;;;;2.92;1.88;;;13.50;99.10;;;;;;5060810;27;20038;-66
2024/03/16 05:19:19;;;;;;;3.30;1.58;;;13.50;99.20;;;;;;5026657;28;20116;-68
2024/03/16 05:22:05;;;;;;;2.75;1.73;;;13.40;99.20;;;;;;5025041;27;20057;-68
2024/03/16 05:24:51;;;;;;;3.08;1.70;;;13.50;99.30;;;;;;5028148;28;20069;-69
2024/03/16 05:27:37;;;;;;;2.28;1.45;;;13.40;99.30;;;;;;5022207;28;20033;-71
2024/03/16 05:30:23;;;;;;;2.75;1.58;;;13.40;99.30;;;;;;5079159;27;20054;-71
2024/03/16 05:33:09;;;;;;;3.38;1.75;;;13.40;99.30;;;;;;5019851;28;20054;-70
2024/03/16 05:35:55;;;;;;;3.47;1.80;;;13.30;99.30;;;;;;5025451;28;20519;-71
2024/03/16 05:38:47;;;;;;;3.67;1.85;;;13.30;99.40;;;;;;5022840;28;20094;-70
2024/03/16 05:41:33;;;;;;;2.78;1.50;;;13.30;99.40;;;;;;5028713;28;20136;-70
2024/03/16 05:44:19;;;;;;;3.88;2.00;;;13.30;99.40;;;;;;5022650;28;20057;-70
2024/03/16 05:47:06;;;;;;;2.95;1.70;;;13.30;99.40;;;;;;5027512;28;20041;-71
2024/03/16 05:49:53;;;;;;;2.97;1.85;;;13.20;99.50;;;;;;5081597;28;20073;-71
2024/03/16 05:52:39;;;;;;;2.90;1.45;;;13.20;99.50;;;;;;5026212;28;20041;-71
2024/03/16 05:55:25;;;;;;;2.15;1.58;;;13.20;99.60;;;;;;5017438;28;20038;-70
2024/03/16 05:58:11;;;;;;;4.88;1.55;;;13.30;99.60;;;;;;5026983;28;20044;-70
2024/03/16 06:00:57;;;;;;;10.90;3.05;;;13.20;99.60;;;;;;5025725;28;20038;-75
2024/03/16 06:03:43;;;;;;;4.47;1.55;;;13.20;99.70;;;;;;5018304;28;20064;-71
2024/03/16 06:06:31;;;;;;;2.08;1.50;;;13.20;99.70;;;;;;5014183;28;20052;-73
2024/03/16 06:09:17;;;;;;;3.80;1.50;;;13.30;99.80;;;;;;5024276;28;20034;-73
2024/03/16 06:12:03;;;;;;;1.67;1.45;;;13.30;99.70;;;;;;5118565;28;20512;-71
2024/03/16 06:14:50;;;;;;;3.80;1.45;;;13.30;99.70;;;;;;5008632;28;20595;-69
2024/03/16 06:17:36;;;;;;;3.33;1.20;;;13.30;99.70;;;;;;5028909;28;20042;-69
2024/03/16 06:20:22;;;;;;;4.60;1.60;;;13.30;99.60;;;;;;5022852;28;20442;-71
2024/03/16 06:23:08;;;;;;;2.83;1.73;;;13.40;99.60;;;;;;5028212;28;20140;-70
2024/03/16 06:26:03;;;;;;;2.72;1.40;;;13.40;99.60;;;;;;5046804;28;20045;-70
2024/03/16 06:29:04;;;;;;;5.05;1.60;;;13.40;99.80;;;;;;5056476;28;20030;-70
2024/03/16 06:31:50;;;;;;;2.17;1.40;;;13.30;99.50;;;;;;5049890;27;20055;-72
2024/03/16 06:34:36;;;;;;;2.47;1.60;;;13.30;99.50;;;;;;5031743;28;20409;-72
2024/03/16 06:37:22;;;;;;;4.57;1.60;;;13.40;99.60;;;;;;5030254;28;20052;-70
2024/03/16 06:40:08;;;;;;;2.65;1.63;;;13.40;99.60;;;;;;5029514;28;20666;-69
2024/03/16 06:42:54;;;;;;;2.40;1.48;;;13.40;99.60;;;;;;5015150;27;20042;-69
2024/03/16 06:45:41;;;;;;;4.22;1.45;;;13.50;99.70;;;;;;5027244;28;20494;-70
2024/03/16 06:48:27;;;;;;;2.30;1.30;;;13.50;99.70;;;;;;5026646;28;20038;-70
2024/03/16 06:51:13;;;;;;;4.60;2.17;;;13.60;99.70;;;;;;5019786;28;20038;-70
2024/03/16 06:53:59;;;;;;;3.10;1.90;;;13.60;99.60;;;;;;5053100;27;20038;-70
2024/03/16 06:56:45;;;;;;;3.75;1.58;;;13.70;99.60;;;;;;5025076;28;20090;-70
2024/03/16 06:59:31;;;;;;;3.15;1.33;;;13.70;99.50;;;;;;5022814;28;20260;-65
2024/03/16 07:02:17;;;;;;;5.70;2.13;;;13.80;99.50;;;;;;5067090;27;20054;-66
2024/03/16 07:05:04;;;;;;;3.33;1.90;;;13.80;99.40;;;;;;5049474;27;20072;-65
2024/03/16 07:07:50;;;;;;;5.22;1.80;;;13.90;99.60;;;;;;5054372;27;20497;-66
2024/03/16 07:10:40;;;;;;;3.72;1.50;;;13.90;99.30;;;;;;5023887;28;20071;-65
2024/03/16 07:13:26;;;;;;;3.53;1.70;;;13.90;99.30;;;;;;5028041;27;20145;-65
2024/03/16 07:16:13;;;;;;;2.50;1.58;;;14.00;99.20;;;;;;5073189;27;20374;-66
2024/03/16 07:18:59;;;;;;;3.38;1.70;;;14.00;99.10;;;;;;5045966;27;20094;-66
2024/03/16 07:21:45;;;;;;;5.03;1.80;;;14.00;99.10;;;;;;5021860;28;20102;-66
2024/03/16 07:24:31;;;;;;;2.22;1.25;;;14.00;99.00;;;;;;5028399;28;20058;-66
2024/03/16 07:27:17;;;;;;;3.92;1.73;;;14.10;99.00;;;;;;5023968;28;20041;-65
2024/03/16 07:30:03;;;;;;;2.83;1.30;;;14.10;98.90;;;;;;5043312;27;20035;-65
2024/03/16 07:32:49;;;;;;;2.35;1.40;;;14.10;98.90;;;;;;5030929;28;20124;-65
2024/03/16 07:35:35;;;;;;;2.42;1.50;;;14.10;98.80;;;;;;5029153;27;20051;-65
2024/03/16 07:38:22;;;;;;;2.80;1.50;;;14.10;98.80;;;;;;5024653;28;20041;-66
2024/03/16 07:41:08;;;;;;;4.35;1.58;;;14.10;99.00;;;;;;5070602;27;20046;-66
2024/03/16 07:43:54;;;;;;;4.05;1.95;;;14.10;98.70;;;;;;5022784;28;20056;-66
2024/03/16 07:46:40;;;;;;;3.63;1.60;;;14.20;98.70;;;;;;5029295;28;20040;-66
2024/03/16 07:49:26;;;;;;;2.70;1.48;;;14.20;98.90;;;;;;5036565;27;20045;-66
2024/03/16 07:52:12;;;;;;;4.53;2.17;;;14.20;98.70;;;;;;5025243;28;20094;-66
2024/03/16 07:54:59;;;;;;;6.22;2.05;;;14.20;98.70;;;;;;5060291;27;20435;-66
2024/03/16 07:57:45;;;;;;;6.78;2.22;;;14.20;98.60;;;;;;5035022;28;20056;-65
2024/03/16 08:00:31;;;;;;;3.10;1.52;;;14.20;98.60;;;;;;5025145;28;20049;-66
2024/03/16 08:03:18;;;;;;;2.92;1.20;;;14.20;98.50;;;;;;5023299;28;20134;-67
2024/03/16 08:06:07;;;;;;;2.53;1.40;;;14.20;98.50;;;;;;5027416;28;20053;-66
2024/03/16 08:08:53;;;;;;;3.28;1.20;;;14.20;98.50;;;;;;5029205;28;20587;-66
2024/03/16 08:11:41;;;;;;;2.20;1.20;;;14.30;98.50;;;;;;5047560;27;20118;-66
2024/03/16 08:14:34;;;;;;;3.55;1.80;;;14.30;98.40;;;;;;5092602;27;20045;-69
2024/03/16 08:17:21;;;;;;;4.53;1.63;;;14.30;98.40;;;;;;5023023;28;20042;-69
2024/03/16 08:20:08;;;;;;;2.92;1.42;;;14.30;98.40;;;;;;5026294;28;20120;-69
2024/03/16 08:22:54;;;;;;;3.70;1.50;;;14.40;98.40;;;;;;5022623;27;20055;-70
2024/03/16 08:25:41;;;;;;;7.00;1.77;;;14.40;98.40;;;;;;5018627;28;20051;-69
2024/03/16 08:28:27;;;;;;;5.25;1.40;;;14.50;98.60;;;;;;5031624;27;20042;-70
2024/03/16 08:31:13;;;;;;;5.57;1.52;;;14.50;98.30;;;;;;5022324;28;20149;-71
2024/03/16 08:33:59;;;;;;;2.45;1.70;;;14.50;98.30;;;;;;5022871;27;20066;-68
2024/03/16 08:36:44;;;;;;;2.90;1.35;;;14.50;98.20;;;;;;5024682;28;20052;-68
2024/03/16 08:39:33;;;;;;;3.95;1.80;;;14.60;98.20;;;;;;5031819;28;20144;-69
2024/03/16 08:42:19;;;;;;;3.33;1.70;;;14.60;98.20;;;;;;5079908;28;20615;-69
2024/03/16 08:45:07;;;;;;;4.63;1.70;;;14.60;98.20;;;;;;5028816;27;20055;-69
2024/03/16 08:47:53;;;;;;;2.50;1.33;;;14.60;98.20;;;;;;5021735;28;20058;-69
2024/03/16 08:50:39;;;;;;;3.35;1.45;;;14.70;98.20;;;;;;5059371;27;20096;-69
2024/03/16 08:53:26;;;;;;;2.75;1.50;;;14.70;98.20;;;;;;5027602;28;20052;-69
2024/03/16 08:56:12;;;;;;;2.13;1.58;;;14.70;98.10;;;;;;5023317;28;20049;-70
2024/03/16 08:58:58;;;;;;;3.20;1.30;;;14.80;98.20;;;;;;5023700;27;20049;-69
2024/03/16 09:01:44;;;;;;;2.65;1.48;;;14.80;98.20;;;;;;5073116;27;20045;-69
2024/03/16 09:04:30;;;;;;;5.15;1.52;;;14.90;98.10;;;;;;5021680;28;20499;-68
2024/03/16 09:07:16;;;;;;;1.83;1.35;;;15.00;98.10;;;;;;5043683;28;20037;-68
2024/03/16 09:10:02;;;;;;;3.47;1.50;;;15.00;98.00;;;;;;5043081;27;20037;-68
2024/03/16 09:12:48;;;;;;;2.97;1.45;;;15.10;98.00;;;;;;5113542;27;20035;-71
2024/03/16 09:15:34;;;;;;;5.72;1.98;;;15.10;98.10;;;;;;5020740;28;20601;-68
2024/03/16 09:18:20;;;;;;;3.55;1.88;;;15.20;98.00;;;;;;5036802;27;20038;-68
2024/03/16 09:21:06;;;;;;;3.13;1.70;;;15.30;98.00;;;;;;5052579;27;20035;-71
2024/03/16 09:23:52;;;;;;;4.40;1.88;;;15.40;98.10;;;;;;5059180;27;20042;-72
2024/03/16 09:26:38;;;;;;;2.42;1.48;;;15.50;98.00;;;;;;5058186;28;20451;-71
2024/03/16 09:29:24;;;;;;;6.15;2.45;;;15.60;98.00;;;;;;5023036;28;20121;-71
2024/03/16 09:32:10;;;;;;;3.40;1.40;;;15.70;97.90;;;;;;5019512;28;20098;-72
2024/03/16 09:34:56;;;;;;;3.20;1.30;;;15.80;97.80;;;;;;5031744;28;20052;-72
2024/03/16 09:37:42;;;;;;;3.65;1.50;;;15.80;97.60;;;;;;5016018;28;20103;-72
2024/03/16 09:40:28;;;;;;;3.60;1.40;;;15.90;97.60;;;;;;5019576;28;20041;-72
2024/03/16 09:43:14;;;;;;;2.65;1.60;;;15.90;97.50;;;;;;5014416;28;20482;-72
2024/03/16 09:46:01;;;;;;;3.17;2.03;;;15.90;97.30;;;;;;5056828;28;20091;-72
2024/03/16 09:48:47;;;;;;;3.50;1.60;;;16.00;97.20;;;;;;5011943;28;20034;-72
2024/03/16 09:51:34;;;;;;;1.50;1.38;;;16.00;97.20;;;;;;5023808;28;20469;-72
2024/03/16 09:54:21;;;;;;;3.33;1.80;;;16.10;97.00;;;;;;5019407;28;20045;-71
2024/03/16 09:57:14;;;;;;;2.85;1.58;;;16.20;96.80;;;;;;5023747;28;20040;-72
2024/03/16 10:00:00;;;;;;;2.88;1.25;;;16.20;96.60;;;;;;5029324;28;20090;-72
2024/03/16 10:02:46;;;;;;;7.15;1.80;;;16.30;96.50;;;;;;5083017;28;20057;-72
2024/03/16 10:05:32;;;;;;;9.65;3.50;;;16.30;96.40;;;;;;5117762;27;20027;-71
2024/03/16 10:08:22;;;;;;;5.63;1.83;;;16.40;96.10;;;;;;5022260;28;20128;-71
2024/03/16 10:11:13;;;;;;;4.93;1.73;;;16.50;95.90;;;;;;5075117;28;20045;-70
2024/03/16 10:14:02;;;;;;;3.58;1.30;;;16.60;95.70;;;;;;5038631;27;20049;-70
2024/03/16 10:16:48;;;;;;;10.25;2.10;;;16.70;95.50;;;;;;5022020;28;20081;-71
2024/03/16 10:19:35;;;;;;;2.58;1.60;;;16.80;95.60;;;;;;5030994;28;20048;-70
2024/03/16 10:22:22;;;;;;;4.20;1.50;;;16.90;95.10;;;;;;5018682;28;20557;-71
2024/03/16 10:25:09;;;;;;;4.30;1.80;;;17.00;94.90;;;;;;5096663;27;20035;-71
2024/03/16 10:27:55;;;;;;;4.65;2.00;;;17.10;94.80;;;;;;5042125;27;20049;-71
2024/03/16 10:30:45;;;;;;;3.58;1.48;;;17.20;94.40;;;;;;5022226;27;20053;-71
2024/03/16 10:33:41;;;;;;;4.35;2.20;;;17.10;94.20;;;;;;5028777;28;20128;-70
2024/03/16 10:36:27;;;;;;;4.22;2.22;;;17.00;94.00;;;;;;5050883;27;20057;-70
2024/03/16 10:39:16;;;;;;;4.70;2.00;;;16.90;94.10;;;;;;5017856;28;20037;-69
2024/03/16 10:42:04;;;;;;;4.45;1.95;;;16.80;94.40;;;;;;5027481;28;20033;-69
2024/03/16 10:44:50;;;;;;;4.65;1.95;;;16.70;94.90;;;;;;5027257;27;20182;-69
2024/03/16 10:47:36;;;;;;;4.53;1.90;;;16.60;95.30;;;;;;5042683;27;20477;-70
2024/03/16 10:50:25;;;;;;;4.95;2.30;;;16.50;95.60;;;;;;5039171;27;20038;-70
2024/03/16 10:53:12;;;;;;;5.13;2.10;;;16.30;95.90;;;;;;5021859;28;20121;-71
2024/03/16 10:56:00;;;;;;;3.92;2.45;;;16.30;96.30;;;;;;5022002;28;20030;-72
2024/03/16 10:58:51;;;;;;;6.38;2.47;;;16.20;96.40;;;;;;5030603;27;20090;-75
2024/03/16 11:01:39;;;;;;;4.45;1.92;;;16.00;96.60;;;;;;5028874;27;20206;-67
2024/03/16 11:04:25;;;;;;;4.57;2.42;;;16.00;96.80;;;;;;5020953;28;20053;-74
2024/03/16 11:07:14;;;;;;;3.50;2.22;;;16.00;97.00;;;;;;5076514;28;20531;-71
2024/03/16 11:10:00;;;;;;;5.10;2.55;;;15.90;97.10;;;;;;5028214;28;20464;-69
2024/03/16 11:12:46;;;;;;;5.68;2.60;;;15.90;97.20;;;;;;5024099;28;20041;-69
2024/03/16 11:15:38;;;;;;;7.65;2.85;;;15.90;97.50;;;;;;5019585;27;20035;-70
2024/03/16 11:18:24;;;;;;;4.90;2.72;;;15.90;97.70;;;;;;5019017;28;20037;-69
2024/03/16 11:21:14;;;;;;;6.65;2.75;;;15.90;97.90;;;;;;5015625;28;20033;-69
2024/03/16 11:24:04;;;;;;;6.07;3.25;;;15.90;98.00;;;;;;5011986;28;20057;-69
2024/03/16 11:26:50;;;;;;;6.22;3.38;;;15.90;98.20;;;;;;5028497;28;20102;-69
2024/03/16 11:29:57;;;;;;;5.20;2.78;;;16.00;98.40;;;;;;5023602;28;20045;-70
2024/03/16 11:32:43;;;;;;;7.00;2.92;;;16.10;98.30;;;;;;5078739;28;20041;-72
2024/03/16 11:35:30;;;;;;;6.13;3.38;;;16.20;98.20;;;;;;5024920;27;20033;-71
2024/03/16 11:38:18;;;;;;;8.73;3.35;;;16.20;98.00;;;;;;5020888;28;20045;-71
2024/03/16 11:41:07;;;;;;;4.38;2.83;;;16.20;98.00;;;;;;5032428;27;20120;-70
2024/03/16 11:43:53;;;;;;;3.28;2.40;;;16.10;97.90;;;;;;5019485;28;20485;-70
2024/03/16 11:46:46;;;;;;;6.55;3.35;;;16.10;98.00;;;;;;5070640;27;20111;-70
2024/03/16 11:49:34;;;;;;;6.22;2.70;;;16.10;98.00;;;;;;5035566;27;20526;-70
2024/03/16 11:52:20;;;;;;;3.20;2.10;;;16.00;97.90;;;;;;5013965;27;20053;-70
2024/03/16 11:55:06;;;;;;;4.20;2.80;;;15.90;97.90;;;;;;5077177;28;20045;-70
2024/03/16 11:57:53;;;;;;;4.47;2.80;;;15.80;97.90;;;;;;5084668;28;20106;-71
2024/03/16 12:00:45;;;;;;;7.22;3.15;;;15.60;98.00;;;;;;5024338;28;20066;-69
2024/03/16 12:03:31;;;;;;;4.40;2.83;;;15.40;98.50;;;;;;5027456;28;20057;-70
2024/03/16 12:06:20;;;;;;;4.20;2.80;;;15.20;98.60;;;;;;5026460;28;20113;-70
2024/03/16 12:09:13;;;;;;;4.45;2.80;;;15.10;98.70;;;;;;5038444;27;20105;-70
2024/03/16 12:11:59;;;;;;;4.60;3.22;;;15.00;98.80;;;;;;5031710;28;20090;-71
2024/03/16 12:14:45;;;;;;;3.63;2.47;;;14.90;98.90;;;;;;5026164;28;20052;-68
2024/03/16 12:17:31;;;;;;;8.75;3.13;;;14.80;99.00;;;;;;5024368;28;20098;-70
2024/03/16 12:20:17;;;;;;;4.63;2.83;;;14.70;99.00;;;;;;5032412;28;20052;-69
2024/03/16 12:23:03;;;;;;;4.65;2.63;;;14.50;99.00;;;;;;5022027;28;20085;-69
2024/03/16 12:25:49;;;;;;;4.60;2.95;;;14.40;99.10;;;;;;5027982;28;20037;-70
2024/03/16 12:28:36;;;;;;;5.90;2.78;;;14.30;99.20;;;;;;5015001;28;20084;-74
2024/03/16 12:31:21;;;;;;;7.00;3.58;;;14.20;99.00;;;;;;5029158;28;20120;-69
2024/03/16 12:34:14;;;;;;;4.20;2.60;;;14.20;99.00;;;;;;5023501;28;20044;-70
2024/03/16 12:37:01;;;;;;;3.88;2.78;;;14.10;99.00;;;;;;5012623;28;21079;-72
2024/03/16 12:39:47;;;;;;;4.47;3.25;;;14.00;99.00;;;;;;5023759;28;20094;-70
2024/03/16 12:42:33;;;;;;;4.25;2.67;;;13.90;99.00;;;;;;5026127;27;20037;-70
2024/03/16 12:45:19;;;;;;;3.65;2.80;;;13.90;99.00;;;;;;5017626;27;20068;-70
2024/03/16 12:48:06;;;;;;;4.13;3.05;;;13.80;99.00;;;;;;5025565;27;20046;-73
2024/03/16 12:50:52;;;;;;;4.65;2.72;;;13.70;99.10;;;;;;5017030;28;20083;-69
2024/03/16 12:53:38;;;;;;;6.05;3.22;;;13.70;99.10;;;;;;5019176;28;20049;-68
2024/03/16 12:56:23;;;;;;;5.43;2.80;;;13.60;99.10;;;;;;5020077;28;20042;-69
2024/03/16 12:59:13;;;;;;;3.67;2.70;;;13.60;98.90;;;;;;5032568;28;20039;-69
2024/03/16 13:01:59;;;;;;;6.15;3.33;;;13.50;99.00;;;;;;5029227;28;20145;-69
2024/03/16 13:04:46;;;;;;;4.00;2.47;;;13.40;99.10;;;;;;5072949;28;20064;-69
2024/03/16 13:07:32;;;;;;;4.15;2.50;;;13.30;99.20;;;;;;5073359;28;20042;-69
2024/03/16 13:10:18;;;;;;;3.90;2.40;;;13.00;99.20;;;;;;5026497;28;20079;-70
2024/03/16 13:13:04;;;;;;;3.65;1.90;;;12.90;99.20;;;;;;5017486;28;20034;-69
2024/03/16 13:15:51;;;;;;;3.97;2.00;;;12.80;99.20;;;;;;5018771;28;20072;-69
2024/03/16 13:18:37;;;;;;;4.38;2.25;;;12.80;99.20;;;;;;5019702;28;20077;-69
2024/03/16 13:21:23;;;;;;;4.68;1.70;;;12.70;98.90;;;;;;5025175;28;20148;-68
2024/03/16 13:24:09;;;;;;;3.33;1.70;;;12.70;98.90;;;;;;5041679;27;20404;-68
2024/03/16 13:26:55;;;;;;;5.10;2.25;;;12.70;98.80;;;;;;5032084;27;20034;-69
2024/03/16 13:29:42;;;;;;;8.77;2.00;;;12.60;98.60;;;;;;5026981;28;20125;-68
2024/03/16 13:32:28;;;;;;;4.75;2.10;;;12.40;98.60;;;;;;5079240;28;20045;-69
2024/03/16 13:35:16;;;;;;;6.40;2.90;;;12.40;98.60;;;;;;5022193;28;20048;-69
2024/03/16 13:38:05;;;;;;;4.07;1.85;;;12.40;99.00;;;;;;5043932;28;20172;-69
2024/03/16 13:40:52;;;;;;;3.65;2.00;;;12.50;98.90;;;;;;5048096;28;20095;-69
2024/03/16 13:43:42;;;;;;;5.03;2.90;;;12.50;98.70;;;;;;5015482;28;20049;-68
2024/03/16 13:46:28;;;;;;;5.35;2.92;;;12.50;98.60;;;;;;5040936;28;20125;-69
2024/03/16 13:49:16;;;;;;;5.78;2.08;;;12.30;98.70;;;;;;5050181;28;20052;-69
2024/03/16 13:52:04;;;;;;;13.00;3.72;;;12.30;98.50;;;;;;5045875;28;20038;-70
2024/03/16 13:54:50;;;;;;;4.43;2.30;;;12.20;98.20;;;;;;5015399;28;20049;-69
2024/03/16 13:57:37;;;;;;;6.00;2.47;;;12.10;98.10;;;;;;5022936;28;20046;-69
2024/03/16 14:00:25;;;;;;;5.20;2.20;;;12.10;98.10;;;;;;5021343;28;20124;-69
2024/03/16 14:03:12;;;;;;;4.82;2.60;;;12.20;97.80;;;;;;5026351;28;20045;-69
2024/03/16 14:05:58;;;;;;;4.63;2.33;;;12.10;97.30;;;;;;5011262;28;20042;-69
2024/03/16 14:08:45;;;;;;;5.65;2.60;;;12.10;97.50;;;;;;5027451;28;20102;-69
2024/03/16 14:11:30;;;;;;;4.40;2.83;;;12.30;97.50;;;;;;5015846;28;20532;-70
2024/03/16 14:14:18;;;;;;;3.72;2.20;;;12.30;96.80;;;;;;5026551;28;20503;-70
2024/03/16 14:17:07;;;;;;;4.43;2.20;;;12.30;96.60;;;;;;5022366;28;20129;-70
2024/03/16 14:19:56;;;;;;;5.60;2.13;;;12.30;96.70;;;;;;5010907;28;20041;-70
2024/03/16 14:22:51;;;;;;;5.35;2.42;;;12.20;96.30;;;;;;5020417;28;20045;-70
2024/03/16 14:25:37;;;;;;;7.47;2.97;;;12.20;96.10;;;;;;5081797;28;20034;-76
2024/03/16 14:28:24;;;;;;;3.75;2.28;;;12.10;96.10;;;;;;5058027;28;20053;-78